Flood From: 18-02-2018 10:00 Until: 19-02-2018 06:00 warning for: Flood Level: Yellow info button

Although rather usual in this region, locally or potentially dangerous phenomena are expected. (such as local winds, summer thunderstorms, rising streams or high waves) Be aware and pay attention to the latest weather updates, especially if you carry out activities exposed to weather or close to a stream or shoreline. 


Meteo18 Weather Cam more information Meteo18 Weather Cam


Thunder radar more information blitzortung!


Rain radar more information rain snow radar


Visit our other weather sites:

Template documentation
and downloads

And another site



Weather Underground History page Text

Daily Summary for August 20, 2017 Units:  English    Metric   Both
« Previous Day
Next Day »
Daily Weekly Monthly Yearly Custom
  High: Low: Average:
Temperature: TemperatureC °F 11.1 °F 17 °F
Dew Point: DewpointC °F 9.3 °F 10.5 °F
Humidity: Humidity % 45 % 68 %
Wind Speed: WindSpeedKMH mph 0.0 mph 2.1 mph
Wind Gust: WindSpeedGustKMH mph - -
Wind:- - SW
Pressure: PressurehPa in 1024.9 in -
Precipitation: 0.0 in    
Historical Graphs
 
 
Tabular Data for August 20, 2017
Time Temperature Dew Point Pressure Wind Wind Speed Wind Gust Humidity Rainfall Rate (Hourly)
TemperatureC °F DewpointC °F PressurehPa in Calm     Humidity % HourlyPrecipMM in
00:02 12.6 °F 10.0 °F 1025.3 in Calm     84 % 0.0 in
00:12 12.7 °F 10.1 °F 1025.3 in Calm     84 % 0.0 in
00:17 12.7 °F 10.1 °F 1025.3 in Calm     84 % 0.0 in
00:22 12.7 °F 10.2 °F 1025.3 in Calm     85 % 0.0 in
00:27 12.7 °F 10.2 °F 1025.3 in Calm     85 % 0.0 in
00:32 12.7 °F 10.2 °F 1024.9 in Calm     85 % 0.0 in
00:42 12.8 °F 10.2 °F 1024.9 in Calm     84 % 0.0 in
00:47 12.8 °F 10.2 °F 1024.9 in Calm   1.6 mph 84 % 0.0 in
00:57 13.5 °F 10.1 °F 1024.9 in Calm   3.2 mph 80 % 0.0 in
01:02 13.9 °F 10.5 °F 1024.9 in Calm   3.2 mph 80 % 0.0 in
01:07 14.2 °F 10.4 °F 1024.9 in Calm   3.2 mph 78 % 0.0 in
01:12 14.4 °F 10.4 °F 1024.9 in NW 1.6 mph 3.2 mph 77 % 0.0 in
01:17 14.6 °F 10.4 °F 1024.9 in NW 1.6 mph 3.2 mph 76 % 0.0 in
01:22 14.8 °F 10.6 °F 1024.9 in Calm   3.2 mph 76 % 0.0 in
01:27 14.9 °F 10.7 °F 1024.9 in Calm   3.2 mph 76 % 0.0 in
01:32 14.9 °F 10.5 °F 1024.9 in Calm   3.2 mph 75 % 0.0 in
01:42 14.9 °F 10.5 °F 1024.9 in Calm   3.2 mph 75 % 0.0 in
01:52 14.8 °F 10.4 °F 1024.9 in NW 1.6 mph 3.2 mph 75 % 0.0 in
01:57 14.7 °F 10.3 °F 1024.9 in WNW 1.6 mph 3.2 mph 75 % 0.0 in
02:02 14.7 °F 10.3 °F 1024.9 in Calm   3.2 mph 75 % 0.0 in
02:07 14.5 °F 10.3 °F 1024.9 in Calm   3.2 mph 76 % 0.0 in
02:12 14.3 °F 10.3 °F 1024.9 in Calm   3.2 mph 77 % 0.0 in
02:22 13.7 °F 10.3 °F 1024.9 in Calm   1.6 mph 80 % 0.0 in
02:27 13.6 °F 10.2 °F 1024.9 in WNW 3.2 mph 3.2 mph 80 % 0.0 in
02:32 13.6 °F 10.2 °F 1024.9 in WNW 1.6 mph 3.2 mph 80 % 0.0 in
02:37 13.5 °F 10.3 °F 1024.9 in Calm   4.8 mph 81 % 0.0 in
02:42 13.5 °F 10.3 °F 1024.9 in Calm   4.8 mph 81 % 0.0 in
02:47 13.7 °F 10.3 °F 1024.9 in NNW 3.2 mph 3.2 mph 80 % 0.0 in
02:52 13.8 °F 10.2 °F 1024.9 in Calm   3.2 mph 79 % 0.0 in
03:02 13.7 °F 10.1 °F 1024.9 in Calm   4.8 mph 79 % 0.0 in
03:07 13.6 °F 10.2 °F 1024.9 in NNE 4.8 mph 4.8 mph 80 % 0.0 in
03:12 13.4 °F 10.2 °F 1024.9 in NNW 3.2 mph 4.8 mph 81 % 0.0 in
03:17 13.6 °F 10.4 °F 1024.9 in NNE 3.2 mph 4.8 mph 81 % 0.0 in
03:22 13.6 °F 10.2 °F 1024.9 in WNW 1.6 mph 6.4 mph 80 % 0.0 in
03:27 13.5 °F 10.3 °F 1024.9 in West 1.6 mph 6.4 mph 81 % 0.0 in
03:32 13.4 °F 10.2 °F 1024.9 in NW 1.6 mph 6.4 mph 81 % 0.0 in
03:37 13.3 °F 10.3 °F 1025.3 in NW 1.6 mph 4.8 mph 82 % 0.0 in
03:42 13.3 °F 10.3 °F 1025.3 in WNW 3.2 mph 4.8 mph 82 % 0.0 in
03:47 13.2 °F 10.4 °F 1025.3 in Calm   4.8 mph 83 % 0.0 in
03:52 13.2 °F 10.4 °F 1025.3 in Calm   4.8 mph 83 % 0.0 in
03:57 13.1 °F 10.3 °F 1025.3 in Calm   4.8 mph 83 % 0.0 in
04:02 13.1 °F 10.5 °F 1025.3 in NW 1.6 mph 4.8 mph 84 % 0.0 in
04:12 12.9 °F 10.3 °F 1024.9 in Calm   3.2 mph 84 % 0.0 in
04:17 12.8 °F 10.2 °F 1024.9 in Calm   3.2 mph 84 % 0.0 in
04:22 12.8 °F 10.3 °F 1024.9 in Calm   1.6 mph 85 % 0.0 in
04:27 12.8 °F 10.3 °F 1025.3 in NW 1.6 mph 1.6 mph 85 % 0.0 in
04:32 12.8 °F 10.3 °F 1025.3 in Calm   1.6 mph 85 % 0.0 in
04:42 12.6 °F 10.1 °F 1025.3 in North 1.6 mph 3.2 mph 85 % 0.0 in
04:47 12.4 °F 9.9 °F 1025.3 in North 1.6 mph 1.6 mph 85 % 0.0 in
04:52 12.3 °F 10.0 °F 1025.3 in NNW 3.2 mph 3.2 mph 86 % 0.0 in
05:02 12.3 °F 10.0 °F 1025.3 in NW 3.2 mph 3.2 mph 86 % 0.0 in
05:17 12.4 °F 10.1 °F 1025.6 in NNW 3.2 mph 4.8 mph 86 % 0.0 in
05:22 12.6 °F 10.3 °F 1025.6 in NNW 1.6 mph 4.8 mph 86 % 0.0 in
05:32 12.5 °F 10.2 °F 1025.6 in NNW 1.6 mph 4.8 mph 86 % 0.0 in
05:42 12.3 °F 10.0 °F 1025.6 in North 1.6 mph 4.8 mph 86 % 0.0 in
05:47 12.3 °F 10.0 °F 1025.6 in NNW 1.6 mph 3.2 mph 86 % 0.0 in
05:52 12.3 °F 10.0 °F 1025.6 in Calm   3.2 mph 86 % 0.0 in
06:02 12.2 °F 10.1 °F 1025.6 in Calm   3.2 mph 87 % 0.0 in
06:12 12.1 °F 10.0 °F 1025.6 in Calm   3.2 mph 87 % 0.0 in
06:17 12.1 °F 10.2 °F 1025.6 in NNW 1.6 mph 3.2 mph 88 % 0.0 in
06:22 12.0 °F 10.1 °F 1025.6 in North 1.6 mph 3.2 mph 88 % 0.0 in
06:27 12.1 °F 10.2 °F 1025.6 in NNW 3.2 mph 4.8 mph 88 % 0.0 in
06:32 12.1 °F 10.0 °F 1025.6 in Calm   4.8 mph 87 % 0.0 in
06:42 11.6 °F 9.5 °F 1025.6 in Calm   4.8 mph 87 % 0.0 in
06:47 11.4 °F 9.7 °F 1025.6 in Calm   1.6 mph 89 % 0.0 in
06:52 11.4 °F 9.7 °F 1025.6 in Calm   1.6 mph 89 % 0.0 in
06:57 11.3 °F 9.6 °F 1025.6 in WNW 1.6 mph 1.6 mph 89 % 0.0 in
07:02 11.2 °F 9.8 °F 1025.6 in Calm   1.6 mph 91 % 0.0 in
07:12 11.3 °F 9.6 °F 1026.0 in WNW 1.6 mph 3.2 mph 89 % 0.0 in
07:17 11.1 °F 9.7 °F 1026.0 in WNW 1.6 mph 1.6 mph 91 % 0.0 in
07:22 11.1 °F 9.7 °F 1026.0 in Calm   1.6 mph 91 % 0.0 in
07:32 11.2 °F 9.8 °F 1026.0 in WNW 1.6 mph 3.2 mph 91 % 0.0 in
07:42 11.5 °F 10.2 °F 1026.0 in Calm   3.2 mph 92 % 0.0 in
07:52 11.9 °F 10.3 °F 1026.3 in Calm   3.2 mph 90 % 0.0 in
08:02 12.2 °F 10.6 °F 1026.3 in Calm   3.2 mph 90 % 0.0 in
08:12 12.7 °F 10.9 °F 1026.6 in Calm   9.7 mph 89 % 0.0 in
08:17 12.9 °F 11.0 °F 1026.6 in Calm   3.2 mph 88 % 0.0 in
08:22 13.1 °F 11.0 °F 1026.6 in WNW 1.6 mph 3.2 mph 87 % 0.0 in
08:27 13.2 °F 11.1 °F 1026.6 in Calm   4.8 mph 87 % 0.0 in
08:32 13.4 °F 11.1 °F 1026.6 in West 1.6 mph 4.8 mph 86 % 0.0 in
08:42 14.1 °F 11.6 °F 1026.6 in WNW 3.2 mph 4.8 mph 85 % 0.0 in
08:47 14.2 °F 11.5 °F 1026.6 in Calm   4.8 mph 84 % 0.0 in
08:52 14.4 °F 11.5 °F 1026.6 in Calm   4.8 mph 83 % 0.0 in
09:02 14.9 °F 11.9 °F 1027.0 in NNE 6.4 mph 6.4 mph 82 % 0.0 in
09:12 15.1 °F 11.9 °F 1027.0 in NNW 6.4 mph 8.0 mph 81 % 0.0 in
09:17 15.3 °F 11.9 °F 1027.0 in North 6.4 mph 9.7 mph 80 % 0.0 in
09:22 15.5 °F 12.1 °F 1027.3 in North 4.8 mph 9.7 mph 80 % 0.0 in
09:32 15.8 °F 12.4 °F 1027.0 in NNE 11.3 mph 11.3 mph 80 % 0.0 in
09:42 16.3 °F 11.9 °F 1027.3 in NE 4.8 mph 12.9 mph 75 % 0.0 in
09:52 16.4 °F 11.8 °F 1027.3 in ENE 3.2 mph 12.9 mph 74 % 0.0 in
10:02 16.8 °F 11.9 °F 1027.3 in ENE 6.4 mph 12.9 mph 73 % 0.0 in
10:12 16.9 °F 11.4 °F 1027.7 in ENE 11.3 mph 11.3 mph 70 % 0.0 in
10:17 16.8 °F 11.1 °F 1027.3 in NE 3.2 mph 14.5 mph 69 % 0.0 in
10:22 17.1 °F 11.4 °F 1027.7 in NE 8.0 mph 14.5 mph 69 % 0.0 in
10:32 17.2 °F 11.7 °F 1027.7 in East 6.4 mph 12.9 mph 70 % 0.0 in
10:37 17.3 °F 11.6 °F 1027.7 in ENE 3.2 mph 12.9 mph 69 % 0.0 in
10:42 17.4 °F 11.4 °F 1027.7 in ENE 1.6 mph 12.9 mph 68 % 0.0 in
10:47 17.4 °F 11.4 °F 1027.7 in West 3.2 mph 9.7 mph 68 % 0.0 in
10:52 17.5 °F 11.5 °F 1027.7 in NNE 8.0 mph 9.7 mph 68 % 0.0 in
10:57 17.6 °F 11.4 °F 1027.7 in NE 6.4 mph 9.7 mph 67 % 0.0 in
11:02 17.6 °F 11.2 °F 1027.7 in NNE 4.8 mph 9.7 mph 66 % 0.0 in
11:12 18.3 °F 11.6 °F 1027.7 in ENE 1.6 mph 11.3 mph 65 % 0.0 in
11:17 18.3 °F 11.4 °F 1027.7 in ESE 1.6 mph 8.0 mph 64 % 0.0 in
11:22 18.3 °F 11.1 °F 1027.7 in East 6.4 mph 8.0 mph 63 % 0.0 in
11:32 18.3 °F 11.6 °F 1027.7 in NNE 3.2 mph 11.3 mph 65 % 0.0 in
11:42 18.4 °F 11.2 °F 1027.7 in Calm   11.3 mph 63 % 0.0 in
11:47 18.7 °F 11.3 °F 1027.7 in ENE 1.6 mph 11.3 mph 62 % 0.0 in
11:52 18.7 °F 11.0 °F 1027.7 in ENE 1.6 mph 11.3 mph 61 % 0.0 in
12:02 19.0 °F 11.3 °F 1027.7 in Calm   11.3 mph 61 % 0.0 in
12:12 20.1 °F 11.3 °F 1027.7 in South 1.6 mph 8.0 mph 57 % 0.0 in
12:17 20.3 °F 11.5 °F 1027.7 in Calm   4.8 mph 57 % 0.0 in
12:22 20.4 °F 10.8 °F 1027.7 in West 6.4 mph 6.4 mph 54 % 0.0 in
12:32 20.2 °F 11.1 °F 1027.7 in Calm   6.4 mph 56 % 0.0 in
12:42 19.7 °F 10.4 °F 1027.7 in NNW 6.4 mph 6.4 mph 55 % 0.0 in
12:47 19.6 °F 10.6 °F 1027.3 in East 1.6 mph 11.3 mph 56 % 0.0 in
12:52 19.6 °F 10.3 °F 1027.3 in Calm   11.3 mph 55 % 0.0 in
12:57 19.7 °F 10.7 °F 1027.3 in Calm   11.3 mph 56 % 0.0 in
13:02 20.0 °F 11.0 °F 1027.0 in West 3.2 mph 11.3 mph 56 % 0.0 in
13:12 19.5 °F 10.5 °F 1027.0 in NW 1.6 mph 4.8 mph 56 % 0.0 in
13:17 19.3 °F 10.6 °F 1027.0 in NW 3.2 mph 8.0 mph 57 % 0.0 in
13:22 19.7 °F 10.9 °F 1027.0 in SE 1.6 mph 8.0 mph 57 % 0.0 in
13:32 19.8 °F 10.2 °F 1027.0 in Calm   8.0 mph 54 % 0.0 in
13:42 20.1 °F 11.0 °F 1027.0 in Calm   4.8 mph 56 % 0.0 in
13:47 20.5 °F 10.9 °F 1027.0 in Calm   3.2 mph 54 % 0.0 in
13:52 20.6 °F 10.7 °F 1027.0 in Calm   3.2 mph 53 % 0.0 in
13:57 20.3 °F 10.4 °F 1027.0 in WNW 3.2 mph 3.2 mph 53 % 0.0 in
14:02 20.3 °F 11.0 °F 1027.0 in WSW 3.2 mph 3.2 mph 55 % 0.0 in
14:07 20.3 °F 10.4 °F 1027.0 in Calm   6.4 mph 53 % 0.0 in
14:12 20.2 °F 10.0 °F 1027.0 in Calm   3.2 mph 52 % 0.0 in
14:17 20.3 °F 11.0 °F 1027.0 in WNW 3.2 mph 4.8 mph 55 % 0.0 in
14:22 20.3 °F 10.4 °F 1027.0 in Calm   6.4 mph 53 % 0.0 in
14:32 20.1 °F 10.5 °F 1027.0 in WSW 6.4 mph 6.4 mph 54 % 0.0 in
14:37 20.2 °F 10.9 °F 1027.0 in WNW 1.6 mph 8.0 mph 55 % 0.0 in
14:42 20.5 °F 10.6 °F 1027.0 in SW 1.6 mph 6.4 mph 53 % 0.0 in
14:52 21.1 °F 10.3 °F 1027.0 in WNW 6.4 mph 14.5 mph 50 % 0.0 in
14:57 20.9 °F 11.0 °F 1027.0 in WNW 3.2 mph 14.5 mph 53 % 0.0 in
15:02 21.1 °F 9.7 °F 1027.0 in WNW 6.4 mph 14.5 mph 48 % 0.0 in
15:12 21.6 °F 10.4 °F 1027.0 in North 3.2 mph 12.9 mph 49 % 0.0 in
15:17 22.0 °F 11.4 °F 1027.0 in NW 4.8 mph 12.9 mph 51 % 0.0 in
15:22 21.7 °F 10.5 °F 1026.6 in North 8.0 mph 16.1 mph 49 % 0.0 in
15:32 21.2 °F 10.7 °F 1026.6 in North 12.9 mph 16.1 mph 51 % 0.0 in
15:42 21.5 °F 10.6 °F 1026.6 in North 6.4 mph 14.5 mph 50 % 0.0 in
15:52 21.6 °F 9.8 °F 1026.6 in West 3.2 mph 11.3 mph 47 % 0.0 in
15:57 21.5 °F 10.0 °F 1026.6 in West 3.2 mph 11.3 mph 48 % 0.0 in
16:02 21.3 °F 9.5 °F 1026.6 in Calm   11.3 mph 47 % 0.0 in
16:07 21.4 °F 9.3 °F 1026.6 in West 1.6 mph 12.9 mph 46 % 0.0 in
16:12 21.8 °F 10.3 °F 1026.6 in NW 3.2 mph 12.9 mph 48 % 0.0 in
16:17 21.6 °F 10.1 °F 1026.6 in NW 6.4 mph 12.9 mph 48 % 0.0 in
16:22 21.5 °F 10.0 °F 1026.6 in WNW 1.6 mph 12.9 mph 48 % 0.0 in
16:32 21.8 °F 10.3 °F 1026.6 in WSW 1.6 mph 12.9 mph 48 % 0.0 in
16:37 21.9 °F 10.4 °F 1026.6 in Calm   12.9 mph 48 % 0.0 in
16:42 22.1 °F 10.6 °F 1026.3 in WSW 3.2 mph 12.9 mph 48 % 0.0 in
16:47 22.2 °F 10.4 °F 1026.3 in NNE 6.4 mph 12.9 mph 47 % 0.0 in
16:52 22.0 °F 9.8 °F 1026.3 in WSW 1.6 mph 11.3 mph 46 % 0.0 in
17:02 22.2 °F 10.0 °F 1026.3 in NNE 1.6 mph 9.7 mph 46 % 0.0 in
17:12 22.2 °F 10.4 °F 1026.3 in WNW 8.0 mph 12.9 mph 47 % 0.0 in
17:17 22.1 °F 10.3 °F 1026.3 in West 9.7 mph 12.9 mph 47 % 0.0 in
17:22 22.2 °F 9.7 °F 1026.3 in West 3.2 mph 16.1 mph 45 % 0.0 in
17:27 22.3 °F 9.8 °F 1026.0 in Calm   16.1 mph 45 % 0.0 in
17:32 22.5 °F 10.0 °F 1026.0 in West 1.6 mph 16.1 mph 45 % 0.0 in
17:42 22.3 °F 10.1 °F 1026.0 in NNE 8.0 mph 11.3 mph 46 % 0.0 in
17:47 22.2 °F 9.7 °F 1026.0 in Calm   12.9 mph 45 % 0.0 in
17:52 22.3 °F 10.1 °F 1026.0 in Calm   12.9 mph 46 % 0.0 in
17:57 22.2 °F 10.0 °F 1026.0 in WNW 3.2 mph 12.9 mph 46 % 0.0 in
18:02 21.8 °F 10.0 °F 1026.0 in North 6.4 mph 12.9 mph 47 % 0.0 in
18:12 21.4 °F 10.5 °F 1026.0 in NNE 4.8 mph 11.3 mph 50 % 0.0 in
18:17 21.6 °F 10.1 °F 1026.0 in NE 6.4 mph 11.3 mph 48 % 0.0 in
18:22 21.8 °F 10.3 °F 1026.0 in NNW 4.8 mph 9.7 mph 48 % 0.0 in
18:27 21.9 °F 10.1 °F 1026.0 in Calm   9.7 mph 47 % 0.0 in
18:32 22.2 °F 10.4 °F 1026.0 in ENE 6.4 mph 11.3 mph 47 % 0.0 in
18:37 22.2 °F 10.0 °F 1026.0 in North 1.6 mph 11.3 mph 46 % 0.0 in
18:42 22.2 °F 10.0 °F 1026.0 in NNW 4.8 mph 9.7 mph 46 % 0.0 in
18:47 22.1 °F 10.3 °F 1026.0 in NNW 8.0 mph 12.9 mph 47 % 0.0 in
18:52 22.2 °F 10.0 °F 1026.0 in WNW 4.8 mph 12.9 mph 46 % 0.0 in
18:57 22.2 °F 10.4 °F 1025.6 in North 6.4 mph 12.9 mph 47 % 0.0 in
19:02 22.2 °F 10.4 °F 1025.6 in North 4.8 mph 12.9 mph 47 % 0.0 in
19:12 22.2 °F 10.7 °F 1025.6 in NE 1.6 mph 8.0 mph 48 % 0.0 in
19:17 22.2 °F 10.0 °F 1025.6 in North 3.2 mph 8.0 mph 46 % 0.0 in
19:22 21.9 °F 10.1 °F 1026.0 in NNE 3.2 mph 8.0 mph 47 % 0.0 in
19:32 22.1 °F 9.9 °F 1025.6 in NNW 1.6 mph 8.0 mph 46 % 0.0 in
19:37 22.2 °F 10.0 °F 1025.6 in WNW 3.2 mph 6.4 mph 46 % 0.0 in
19:42 22.2 °F 10.0 °F 1025.6 in Calm   4.8 mph 46 % 0.0 in
19:47 22.2 °F 10.7 °F 1025.6 in Calm   6.4 mph 48 % 0.0 in
19:52 22.1 °F 10.6 °F 1025.6 in West 1.6 mph 6.4 mph 48 % 0.0 in
20:02 21.9 °F 10.4 °F 1025.6 in WNW 1.6 mph 6.4 mph 48 % 0.0 in
20:12 21.6 °F 10.7 °F 1025.6 in NW 1.6 mph 6.4 mph 50 % 0.0 in
20:17 21.3 °F 10.8 °F 1025.6 in NW 3.2 mph 6.4 mph 51 % 0.0 in
20:22 21.2 °F 11.0 °F 1025.6 in Calm   6.4 mph 52 % 0.0 in
20:32 20.8 °F 10.9 °F 1025.6 in Calm   6.4 mph 53 % 0.0 in
20:37 20.7 °F 10.8 °F 1025.6 in Calm   3.2 mph 53 % 0.0 in
20:42 20.4 °F 11.1 °F 1025.6 in Calm   1.6 mph 55 % 0.0 in
20:47 19.8 °F 11.6 °F 1025.6 in NNE 1.6 mph 1.6 mph 59 % 0.0 in
20:52 19.2 °F 11.7 °F 1026.0 in Calm   1.6 mph 62 % 0.0 in
20:57 18.8 °F 11.4 °F 1026.0 in Calm   3.2 mph 62 % 0.0 in
21:02 18.6 °F 10.9 °F 1026.0 in Calm   3.2 mph 61 % 0.0 in
21:12 18.4 °F 11.2 °F 1026.0 in Calm   3.2 mph 63 % 0.0 in
21:17 18.2 °F 11.3 °F 1026.0 in NNW 1.6 mph 1.6 mph 64 % 0.0 in
21:22 18.0 °F 11.3 °F 1026.0 in Calm   1.6 mph 65 % 0.0 in
21:32 17.5 °F 11.5 °F 1026.0 in Calm   1.6 mph 68 % 0.0 in
21:42 17.0 °F 11.3 °F 1026.0 in Calm   1.6 mph 69 % 0.0 in
21:52 16.7 °F 11.2 °F 1026.0 in Calm   1.6 mph 70 % 0.0 in
21:57 16.7 °F 11.4 °F 1026.0 in NW 1.6 mph 1.6 mph 71 % 0.0 in
22:02 16.6 °F 11.1 °F 1026.0 in NW 3.2 mph 3.2 mph 70 % 0.0 in
22:12 16.3 °F 10.8 °F 1026.0 in Calm   3.2 mph 70 % 0.0 in
22:22 15.9 °F 10.9 °F 1026.0 in WNW 1.6 mph 3.2 mph 72 % 0.0 in
22:27 15.7 °F 10.9 °F 1026.0 in WNW 1.6 mph 3.2 mph 73 % 0.0 in
22:32 15.6 °F 11.0 °F 1026.0 in WNW 1.6 mph 3.2 mph 74 % 0.0 in
22:37 15.4 °F 11.2 °F 1026.3 in WNW 1.6 mph 3.2 mph 76 % 0.0 in
22:42 15.2 °F 11.0 °F 1026.3 in Calm   1.6 mph 76 % 0.0 in
22:52 15.1 °F 11.1 °F 1026.3 in Calm   1.6 mph 77 % 0.0 in
23:02 15.0 °F 11.0 °F 1026.3 in Calm   1.6 mph 77 % 0.0 in
23:12 15.0 °F 11.0 °F 1026.3 in Calm   1.6 mph 77 % 0.0 in
23:17 14.8 °F 11.0 °F 1026.3 in Calm     78 % 0.0 in
23:22 14.7 °F 11.1 °F 1026.3 in NW 1.6 mph   79 % 0.0 in
23:32 14.3 °F 11.1 °F 1026.3 in WNW 1.6 mph 1.6 mph 81 % 0.0 in
23:42 14.2 °F 11.0 °F 1026.0 in WNW 1.6 mph 3.2 mph 81 % 0.0 in
23:47 14.1 °F 10.9 °F 1026.0 in Calm   3.2 mph 81 % 0.0 in
23:52 14.1 °F 10.9 °F 1026.0 in WNW 1.6 mph -1607.4 mph 81 % 0.0 in
Meteo18
Compliments of Weather Underground - 4 mb

Script developed by  Jim McMurry - jmcmurry@mwt.net Adapted for the template by  Wim van der Kuil - Leuven-Template.eu

You find our weather info also at:

European Weather Network

Weather Underground

Equipment we use:

Weather-station
Davis Vue

Weather-program
Meteobridge

Weather-server
Raspberry PI 2 B+

Provider
1 and 1

Davis Vue

Meteobridge

Raspberry PI 2 B+

1 and 1